sensor_id;sensor_type;location;lat;lon;timestamp;temperature;humidity
17296;DHT22;8766;51.480;6.872;2023-02-01T00:01:05;6.60;78.90
17296;DHT22;8766;51.480;6.872;2023-02-01T00:03:32;6.60;78.90
17296;DHT22;8766;51.480;6.872;2023-02-01T00:06:02;6.60;79.00
17296;DHT22;8766;51.480;6.872;2023-02-01T00:08:29;6.60;79.10
17296;DHT22;8766;51.480;6.872;2023-02-01T00:11:01;6.60;79.00
17296;DHT22;8766;51.480;6.872;2023-02-01T00:13:32;6.70;79.00
17296;DHT22;8766;51.480;6.872;2023-02-01T00:16:03;6.70;78.80
17296;DHT22;8766;51.480;6.872;2023-02-01T00:18:30;6.70;78.80
17296;DHT22;8766;51.480;6.872;2023-02-01T00:20:57;6.80;78.70
17296;DHT22;8766;51.480;6.872;2023-02-01T00:23:26;6.80;78.60
17296;DHT22;8766;51.480;6.872;2023-02-01T00:25:53;6.80;78.50
17296;DHT22;8766;51.480;6.872;2023-02-01T00:28:20;6.80;78.50
17296;DHT22;8766;51.480;6.872;2023-02-01T00:30:47;6.80;78.40
17296;DHT22;8766;51.480;6.872;2023-02-01T00:33:21;6.90;78.40
17296;DHT22;8766;51.480;6.872;2023-02-01T00:35:48;6.90;78.30
17296;DHT22;8766;51.480;6.872;2023-02-01T00:38:15;6.90;78.30
17296;DHT22;8766;51.480;6.872;2023-02-01T00:40:43;6.90;78.40
17296;DHT22;8766;51.480;6.872;2023-02-01T00:43:10;6.90;78.30
17296;DHT22;8766;51.480;6.872;2023-02-01T00:45:37;6.90;78.30
17296;DHT22;8766;51.480;6.872;2023-02-01T00:48:05;6.90;78.30
17296;DHT22;8766;51.480;6.872;2023-02-01T00:50:32;6.90;78.30
17296;DHT22;8766;51.480;6.872;2023-02-01T00:52:58;6.90;78.40
17296;DHT22;8766;51.480;6.872;2023-02-01T00:55:25;6.90;78.40
17296;DHT22;8766;51.480;6.872;2023-02-01T00:57:54;6.90;78.40
17296;DHT22;8766;51.480;6.872;2023-02-01T01:00:21;6.90;78.40
17296;DHT22;8766;51.480;6.872;2023-02-01T01:02:48;6.90;78.40
17296;DHT22;8766;51.480;6.872;2023-02-01T01:05:15;6.90;78.30
17296;DHT22;8766;51.480;6.872;2023-02-01T01:07:42;6.90;78.30
17296;DHT22;8766;51.480;6.872;2023-02-01T01:10:10;6.90;78.30
17296;DHT22;8766;51.480;6.872;2023-02-01T01:12:37;6.90;78.20
17296;DHT22;8766;51.480;6.872;2023-02-01T01:15:06;6.90;78.20
17296;DHT22;8766;51.480;6.872;2023-02-01T01:17:33;6.90;78.20
17296;DHT22;8766;51.480;6.872;2023-02-01T01:20:00;6.90;78.20
17296;DHT22;8766;51.480;6.872;2023-02-01T01:22:27;6.90;78.10
17296;DHT22;8766;51.480;6.872;2023-02-01T01:24:54;6.90;78.10
17296;DHT22;8766;51.480;6.872;2023-02-01T01:27:21;7.00;78.10
17296;DHT22;8766;51.480;6.872;2023-02-01T01:29:49;7.00;78.10
17296;DHT22;8766;51.480;6.872;2023-02-01T01:32:17;7.00;78.10
17296;DHT22;8766;51.480;6.872;2023-02-01T01:34:44;7.00;78.10
17296;DHT22;8766;51.480;6.872;2023-02-01T01:37:11;6.90;78.10
17296;DHT22;8766;51.480;6.872;2023-02-01T01:39:38;6.90;78.20
17296;DHT22;8766;51.480;6.872;2023-02-01T01:42:05;6.90;78.20
17296;DHT22;8766;51.480;6.872;2023-02-01T01:44:58;6.90;78.20
17296;DHT22;8766;51.480;6.872;2023-02-01T01:47:31;6.90;78.30
17296;DHT22;8766;51.480;6.872;2023-02-01T01:49:59;6.90;78.30
17296;DHT22;8766;51.480;6.872;2023-02-01T01:52:26;6.90;78.30
17296;DHT22;8766;51.480;6.872;2023-02-01T01:54:53;6.90;78.30
17296;DHT22;8766;51.480;6.872;2023-02-01T01:57:23;6.80;78.40
17296;DHT22;8766;51.480;6.872;2023-02-01T01:59:56;6.80;78.40
17296;DHT22;8766;51.480;6.872;2023-02-01T02:02:24;6.80;79.10
17296;DHT22;8766;51.480;6.872;2023-02-01T02:04:52;6.80;78.40
17296;DHT22;8766;51.480;6.872;2023-02-01T02:07:23;6.80;78.40
17296;DHT22;8766;51.480;6.872;2023-02-01T02:09:51;6.80;78.50
17296;DHT22;8766;51.480;6.872;2023-02-01T02:12:18;6.80;78.50
17296;DHT22;8766;51.480;6.872;2023-02-01T02:14:46;6.80;78.50
17296;DHT22;8766;51.480;6.872;2023-02-01T02:17:29;6.80;78.50
17296;DHT22;8766;51.480;6.872;2023-02-01T02:20:35;6.70;78.40
17296;DHT22;8766;51.480;6.872;2023-02-01T02:26:26;6.70;78.50
17296;DHT22;8766;51.480;6.872;2023-02-01T02:32:17;6.60;78.50
17296;DHT22;8766;51.480;6.872;2023-02-01T02:34:50;6.60;78.60
17296;DHT22;8766;51.480;6.872;2023-02-01T02:37:27;6.60;78.60
17296;DHT22;8766;51.480;6.872;2023-02-01T02:40:03;6.60;78.50
17296;DHT22;8766;51.480;6.872;2023-02-01T02:42:38;6.70;78.50
17296;DHT22;8766;51.480;6.872;2023-02-01T02:45:27;6.70;78.40
17296;DHT22;8766;51.480;6.872;2023-02-01T02:48:19;6.70;78.40
17296;DHT22;8766;51.480;6.872;2023-02-01T02:50:53;6.60;78.40
17296;DHT22;8766;51.480;6.872;2023-02-01T02:53:45;6.60;78.50
17296;DHT22;8766;51.480;6.872;2023-02-01T02:56:31;6.60;78.50
17296;DHT22;8766;51.480;6.872;2023-02-01T02:59:18;6.50;78.50
17296;DHT22;8766;51.480;6.872;2023-02-01T03:02:04;6.40;78.60
17296;DHT22;8766;51.480;6.872;2023-02-01T03:04:52;6.30;78.80
17296;DHT22;8766;51.480;6.872;2023-02-01T03:07:54;6.30;79.00
17296;DHT22;8766;51.480;6.872;2023-02-01T03:10:27;6.30;79.10
17296;DHT22;8766;51.480;6.872;2023-02-01T03:13:01;6.30;79.10
17296;DHT22;8766;51.480;6.872;2023-02-01T03:15:33;6.30;79.00
17296;DHT22;8766;51.480;6.872;2023-02-01T03:18:04;6.40;79.00
17296;DHT22;8766;51.480;6.872;2023-02-01T03:20:33;6.40;78.90
17296;DHT22;8766;51.480;6.872;2023-02-01T03:23:04;6.40;78.80
17296;DHT22;8766;51.480;6.872;2023-02-01T03:25:33;6.40;78.70
17296;DHT22;8766;51.480;6.872;2023-02-01T03:28:02;6.50;78.60
17296;DHT22;8766;51.480;6.872;2023-02-01T03:30:32;6.50;78.60
17296;DHT22;8766;51.480;6.872;2023-02-01T03:33:03;6.50;78.50
17296;DHT22;8766;51.480;6.872;2023-02-01T03:35:40;6.50;78.40
17296;DHT22;8766;51.480;6.872;2023-02-01T03:38:14;6.50;78.30
17296;DHT22;8766;51.480;6.872;2023-02-01T03:40:47;6.60;78.40
17296;DHT22;8766;51.480;6.872;2023-02-01T03:43:17;6.60;78.40
17296;DHT22;8766;51.480;6.872;2023-02-01T03:45:49;6.60;78.30
17296;DHT22;8766;51.480;6.872;2023-02-01T03:48:17;6.60;78.30
17296;DHT22;8766;51.480;6.872;2023-02-01T03:50:49;6.60;78.20
17296;DHT22;8766;51.480;6.872;2023-02-01T03:53:21;6.60;78.20
17296;DHT22;8766;51.480;6.872;2023-02-01T03:55:50;6.60;78.20
17296;DHT22;8766;51.480;6.872;2023-02-01T03:58:20;6.60;78.20
17296;DHT22;8766;51.480;6.872;2023-02-01T04:00:51;6.60;78.20
17296;DHT22;8766;51.480;6.872;2023-02-01T04:03:18;6.60;78.20
17296;DHT22;8766;51.480;6.872;2023-02-01T04:05:47;6.60;78.20
17296;DHT22;8766;51.480;6.872;2023-02-01T04:08:14;6.60;78.20
17296;DHT22;8766;51.480;6.872;2023-02-01T04:10:42;6.70;78.20
17296;DHT22;8766;51.480;6.872;2023-02-01T04:13:09;6.70;78.20
17296;DHT22;8766;51.480;6.872;2023-02-01T04:15:36;6.70;78.10
17296;DHT22;8766;51.480;6.872;2023-02-01T04:18:03;6.70;78.00
17296;DHT22;8766;51.480;6.872;2023-02-01T04:20:30;6.70;78.00
17296;DHT22;8766;51.480;6.872;2023-02-01T04:22:57;6.70;78.00
17296;DHT22;8766;51.480;6.872;2023-02-01T04:25:24;6.70;78.00
17296;DHT22;8766;51.480;6.872;2023-02-01T04:27:53;6.70;78.00
17296;DHT22;8766;51.480;6.872;2023-02-01T04:30:20;6.60;78.10
17296;DHT22;8766;51.480;6.872;2023-02-01T04:32:46;6.60;78.20
17296;DHT22;8766;51.480;6.872;2023-02-01T04:35:13;6.60;78.30
17296;DHT22;8766;51.480;6.872;2023-02-01T04:37:40;6.60;78.30
17296;DHT22;8766;51.480;6.872;2023-02-01T04:40:08;6.60;78.30
17296;DHT22;8766;51.480;6.872;2023-02-01T04:42:35;6.60;78.30
17296;DHT22;8766;51.480;6.872;2023-02-01T04:45:05;6.60;78.20
17296;DHT22;8766;51.480;6.872;2023-02-01T04:47:32;6.60;78.20
17296;DHT22;8766;51.480;6.872;2023-02-01T04:49:59;6.70;78.10
17296;DHT22;8766;51.480;6.872;2023-02-01T04:52:26;6.70;78.00
17296;DHT22;8766;51.480;6.872;2023-02-01T04:54:53;6.70;77.90
17296;DHT22;8766;51.480;6.872;2023-02-01T04:57:23;6.80;78.00
17296;DHT22;8766;51.480;6.872;2023-02-01T04:59:50;6.80;77.90
17296;DHT22;8766;51.480;6.872;2023-02-01T05:02:18;6.80;77.80
17296;DHT22;8766;51.480;6.872;2023-02-01T05:04:48;6.80;77.80
17296;DHT22;8766;51.480;6.872;2023-02-01T05:07:16;6.80;77.80
17296;DHT22;8766;51.480;6.872;2023-02-01T05:09:43;6.80;77.80
17296;DHT22;8766;51.480;6.872;2023-02-01T05:12:10;6.70;77.90
17296;DHT22;8766;51.480;6.872;2023-02-01T05:15:03;6.60;78.00
17296;DHT22;8766;51.480;6.872;2023-02-01T05:17:31;6.60;78.20
17296;DHT22;8766;51.480;6.872;2023-02-01T05:19:58;6.60;78.20
17296;DHT22;8766;51.480;6.872;2023-02-01T05:22:25;6.50;78.20
17296;DHT22;8766;51.480;6.872;2023-02-01T05:24:53;6.50;78.30
17296;DHT22;8766;51.480;6.872;2023-02-01T05:27:20;6.50;78.40
17296;DHT22;8766;51.480;6.872;2023-02-01T05:29:47;6.40;78.40
17296;DHT22;8766;51.480;6.872;2023-02-01T05:32:14;6.40;78.50
17296;DHT22;8766;51.480;6.872;2023-02-01T05:34:42;6.40;78.50
17296;DHT22;8766;51.480;6.872;2023-02-01T05:37:09;6.40;78.60
17296;DHT22;8766;51.480;6.872;2023-02-01T05:39:35;6.40;78.50
17296;DHT22;8766;51.480;6.872;2023-02-01T05:42:02;6.40;78.50
17296;DHT22;8766;51.480;6.872;2023-02-01T05:44:29;6.40;78.50
17296;DHT22;8766;51.480;6.872;2023-02-01T05:46:56;6.40;78.60
17296;DHT22;8766;51.480;6.872;2023-02-01T05:49:23;6.30;78.70
17296;DHT22;8766;51.480;6.872;2023-02-01T05:51:51;6.30;78.80
17296;DHT22;8766;51.480;6.872;2023-02-01T05:54:18;6.20;78.90
17296;DHT22;8766;51.480;6.872;2023-02-01T05:56:45;6.20;78.90
17296;DHT22;8766;51.480;6.872;2023-02-01T05:59:12;6.20;79.00
17296;DHT22;8766;51.480;6.872;2023-02-01T06:01:39;6.20;79.00
17296;DHT22;8766;51.480;6.872;2023-02-01T06:04:06;6.20;78.90
17296;DHT22;8766;51.480;6.872;2023-02-01T06:06:33;6.30;78.80
17296;DHT22;8766;51.480;6.872;2023-02-01T06:09:01;6.40;78.60
17296;DHT22;8766;51.480;6.872;2023-02-01T06:11:28;6.50;78.40
17296;DHT22;8766;51.480;6.872;2023-02-01T06:13:55;6.50;78.30
17296;DHT22;8766;51.480;6.872;2023-02-01T06:16:22;6.60;78.20
17296;DHT22;8766;51.480;6.872;2023-02-01T06:18:49;6.60;78.00
17296;DHT22;8766;51.480;6.872;2023-02-01T06:21:16;6.60;77.90
17296;DHT22;8766;51.480;6.872;2023-02-01T06:23:49;6.70;77.90
17296;DHT22;8766;51.480;6.872;2023-02-01T06:26:17;6.70;77.80
17296;DHT22;8766;51.480;6.872;2023-02-01T06:28:44;6.70;77.70
17296;DHT22;8766;51.480;6.872;2023-02-01T06:31:11;6.70;77.70
17296;DHT22;8766;51.480;6.872;2023-02-01T06:33:38;6.70;77.60
17296;DHT22;8766;51.480;6.872;2023-02-01T06:36:06;6.80;77.70
17296;DHT22;8766;51.480;6.872;2023-02-01T06:38:34;6.80;77.70
17296;DHT22;8766;51.480;6.872;2023-02-01T06:41:02;6.80;77.60
17296;DHT22;8766;51.480;6.872;2023-02-01T06:43:31;6.80;77.60
17296;DHT22;8766;51.480;6.872;2023-02-01T06:46:02;6.80;77.60
17296;DHT22;8766;51.480;6.872;2023-02-01T06:48:29;6.80;77.50
17296;DHT22;8766;51.480;6.872;2023-02-01T06:50:56;6.90;77.50
17296;DHT22;8766;51.480;6.872;2023-02-01T06:53:23;6.90;77.50
17296;DHT22;8766;51.480;6.872;2023-02-01T06:55:54;6.90;77.40
17296;DHT22;8766;51.480;6.872;2023-02-01T06:58:21;6.90;77.40
17296;DHT22;8766;51.480;6.872;2023-02-01T07:00:50;6.90;77.40
17296;DHT22;8766;51.480;6.872;2023-02-01T07:03:19;6.90;77.30
17296;DHT22;8766;51.480;6.872;2023-02-01T07:05:46;6.90;77.30
17296;DHT22;8766;51.480;6.872;2023-02-01T07:08:13;6.90;77.30
17296;DHT22;8766;51.480;6.872;2023-02-01T07:10:40;6.90;77.30
17296;DHT22;8766;51.480;6.872;2023-02-01T07:13:07;7.00;77.30
17296;DHT22;8766;51.480;6.872;2023-02-01T07:15:33;7.00;77.30
17296;DHT22;8766;51.480;6.872;2023-02-01T07:18:02;7.00;77.30
17296;DHT22;8766;51.480;6.872;2023-02-01T07:20:29;7.00;77.30
17296;DHT22;8766;51.480;6.872;2023-02-01T07:22:56;7.00;77.30
17296;DHT22;8766;51.480;6.872;2023-02-01T07:25:23;7.00;77.20
17296;DHT22;8766;51.480;6.872;2023-02-01T07:27:50;7.00;77.20
17296;DHT22;8766;51.480;6.872;2023-02-01T07:30:17;7.00;77.20
17296;DHT22;8766;51.480;6.872;2023-02-01T07:32:44;7.00;77.20
17296;DHT22;8766;51.480;6.872;2023-02-01T07:35:13;7.10;77.10
17296;DHT22;8766;51.480;6.872;2023-02-01T07:37:40;7.10;77.10
17296;DHT22;8766;51.480;6.872;2023-02-01T07:40:08;7.10;77.10
17296;DHT22;8766;51.480;6.872;2023-02-01T07:42:35;7.10;77.10
17296;DHT22;8766;51.480;6.872;2023-02-01T07:45:03;7.10;77.00
17296;DHT22;8766;51.480;6.872;2023-02-01T07:47:30;7.10;77.00
17296;DHT22;8766;51.480;6.872;2023-02-01T07:49:57;7.10;77.00
17296;DHT22;8766;51.480;6.872;2023-02-01T07:52:27;7.10;77.00
17296;DHT22;8766;51.480;6.872;2023-02-01T07:54:54;7.10;77.00
17296;DHT22;8766;51.480;6.872;2023-02-01T07:57:21;7.10;76.90
17296;DHT22;8766;51.480;6.872;2023-02-01T07:59:48;7.20;77.00
17296;DHT22;8766;51.480;6.872;2023-02-01T08:02:33;7.20;76.90
17296;DHT22;8766;51.480;6.872;2023-02-01T08:05:00;7.20;76.90
17296;DHT22;8766;51.480;6.872;2023-02-01T08:07:28;7.20;76.90
17296;DHT22;8766;51.480;6.872;2023-02-01T08:09:55;7.20;76.90
17296;DHT22;8766;51.480;6.872;2023-02-01T08:12:22;7.20;76.80
17296;DHT22;8766;51.480;6.872;2023-02-01T08:14:49;7.20;76.80
17296;DHT22;8766;51.480;6.872;2023-02-01T08:17:15;7.20;76.70
17296;DHT22;8766;51.480;6.872;2023-02-01T08:19:42;7.30;76.80
17296;DHT22;8766;51.480;6.872;2023-02-01T08:22:09;7.30;76.70
17296;DHT22;8766;51.480;6.872;2023-02-01T08:24:37;7.30;76.70
17296;DHT22;8766;51.480;6.872;2023-02-01T08:27:06;7.30;76.60
17296;DHT22;8766;51.480;6.872;2023-02-01T08:29:32;7.40;76.60
17296;DHT22;8766;51.480;6.872;2023-02-01T08:31:59;7.40;76.50
17296;DHT22;8766;51.480;6.872;2023-02-01T08:34:26;7.40;76.50
17296;DHT22;8766;51.480;6.872;2023-02-01T08:36:53;7.50;76.50
17296;DHT22;8766;51.480;6.872;2023-02-01T08:39:24;7.50;76.40
17296;DHT22;8766;51.480;6.872;2023-02-01T08:41:52;7.50;76.30
17296;DHT22;8766;51.480;6.872;2023-02-01T08:44:33;7.60;76.20
17296;DHT22;8766;51.480;6.872;2023-02-01T08:47:00;7.60;76.10
17296;DHT22;8766;51.480;6.872;2023-02-01T08:49:27;7.60;76.10
17296;DHT22;8766;51.480;6.872;2023-02-01T08:51:56;7.70;76.10
17296;DHT22;8766;51.480;6.872;2023-02-01T08:54:23;7.70;76.00
17296;DHT22;8766;51.480;6.872;2023-02-01T08:57:21;7.70;76.00
17296;DHT22;8766;51.480;6.872;2023-02-01T09:00:00;7.70;76.00
17296;DHT22;8766;51.480;6.872;2023-02-01T09:02:28;7.70;75.90
17296;DHT22;8766;51.480;6.872;2023-02-01T09:04:55;7.70;75.90
17296;DHT22;8766;51.480;6.872;2023-02-01T09:07:22;7.70;76.00
17296;DHT22;8766;51.480;6.872;2023-02-01T09:09:49;7.70;76.00
17296;DHT22;8766;51.480;6.872;2023-02-01T09:12:17;7.70;76.10
17296;DHT22;8766;51.480;6.872;2023-02-01T09:14:44;7.60;76.10
17296;DHT22;8766;51.480;6.872;2023-02-01T09:17:11;7.60;76.20
17296;DHT22;8766;51.480;6.872;2023-02-01T09:19:39;7.60;76.20
17296;DHT22;8766;51.480;6.872;2023-02-01T09:22:06;7.70;76.20
17296;DHT22;8766;51.480;6.872;2023-02-01T09:24:33;7.70;76.00
17296;DHT22;8766;51.480;6.872;2023-02-01T09:27:00;7.70;75.90
17296;DHT22;8766;51.480;6.872;2023-02-01T09:29:28;7.80;75.90
17296;DHT22;8766;51.480;6.872;2023-02-01T09:31:55;7.80;75.80
17296;DHT22;8766;51.480;6.872;2023-02-01T09:34:22;7.80;75.70
17296;DHT22;8766;51.480;6.872;2023-02-01T09:36:49;7.90;75.70
17296;DHT22;8766;51.480;6.872;2023-02-01T09:39:16;7.90;75.70
17296;DHT22;8766;51.480;6.872;2023-02-01T09:41:55;7.90;75.60
17296;DHT22;8766;51.480;6.872;2023-02-01T09:44:37;8.00;75.70
17296;DHT22;8766;51.480;6.872;2023-02-01T09:47:10;8.00;75.50
17296;DHT22;8766;51.480;6.872;2023-02-01T09:49:44;8.00;75.40
17296;DHT22;8766;51.480;6.872;2023-02-01T09:52:13;8.00;75.40
17296;DHT22;8766;51.480;6.872;2023-02-01T09:54:44;8.00;75.40
17296;DHT22;8766;51.480;6.872;2023-02-01T09:57:15;8.00;75.40
17296;DHT22;8766;51.480;6.872;2023-02-01T09:59:46;8.10;75.40
17296;DHT22;8766;51.480;6.872;2023-02-01T10:02:18;8.10;75.30
17296;DHT22;8766;51.480;6.872;2023-02-01T10:04:47;8.10;75.20
17296;DHT22;8766;51.480;6.872;2023-02-01T10:07:24;8.10;75.30
17296;DHT22;8766;51.480;6.872;2023-02-01T10:09:58;8.10;75.20
17296;DHT22;8766;51.480;6.872;2023-02-01T10:13:01;8.10;75.30
17296;DHT22;8766;51.480;6.872;2023-02-01T10:15:52;8.10;75.30
17296;DHT22;8766;51.480;6.872;2023-02-01T10:18:40;8.20;75.20
17296;DHT22;8766;51.480;6.872;2023-02-01T10:21:19;8.20;75.10
17296;DHT22;8766;51.480;6.872;2023-02-01T10:24:05;8.30;75.00
17296;DHT22;8766;51.480;6.872;2023-02-01T10:26:38;8.40;74.80
17296;DHT22;8766;51.480;6.872;2023-02-01T10:29:15;8.40;74.60
17296;DHT22;8766;51.480;6.872;2023-02-01T10:31:44;8.40;74.60
17296;DHT22;8766;51.480;6.872;2023-02-01T10:34:18;8.40;74.60
17296;DHT22;8766;51.480;6.872;2023-02-01T10:36:53;8.40;74.60
17296;DHT22;8766;51.480;6.872;2023-02-01T10:39:21;8.40;74.80
17296;DHT22;8766;51.480;6.872;2023-02-01T10:41:49;8.30;74.80
17296;DHT22;8766;51.480;6.872;2023-02-01T10:44:19;8.30;74.90
17296;DHT22;8766;51.480;6.872;2023-02-01T10:46:49;8.20;75.10
17296;DHT22;8766;51.480;6.872;2023-02-01T10:49:18;8.20;75.20
17296;DHT22;8766;51.480;6.872;2023-02-01T10:51:48;8.30;75.20
17296;DHT22;8766;51.480;6.872;2023-02-01T10:54:19;8.30;75.20
17296;DHT22;8766;51.480;6.872;2023-02-01T10:56:47;8.30;75.00
17296;DHT22;8766;51.480;6.872;2023-02-01T10:59:17;8.40;74.90
17296;DHT22;8766;51.480;6.872;2023-02-01T11:01:46;8.40;74.80
17296;DHT22;8766;51.480;6.872;2023-02-01T11:04:15;8.40;74.80
17296;DHT22;8766;51.480;6.872;2023-02-01T11:06:44;8.40;74.90
17296;DHT22;8766;51.480;6.872;2023-02-01T11:09:18;8.40;75.00
17296;DHT22;8766;51.480;6.872;2023-02-01T11:11:55;8.40;75.50
17296;DHT22;8766;51.480;6.872;2023-02-01T11:14:30;8.50;74.80
17296;DHT22;8766;51.480;6.872;2023-02-01T11:17:00;8.50;74.70
17296;DHT22;8766;51.480;6.872;2023-02-01T11:19:29;8.60;74.60
17296;DHT22;8766;51.480;6.872;2023-02-01T11:21:58;8.50;74.50
17296;DHT22;8766;51.480;6.872;2023-02-01T11:24:29;8.60;74.60
17296;DHT22;8766;51.480;6.872;2023-02-01T11:26:57;8.50;74.60
17296;DHT22;8766;51.480;6.872;2023-02-01T11:29:25;8.50;74.70
17296;DHT22;8766;51.480;6.872;2023-02-01T11:32:10;8.50;74.70
17296;DHT22;8766;51.480;6.872;2023-02-01T11:35:26;8.50;74.70
17296;DHT22;8766;51.480;6.872;2023-02-01T11:38:00;8.50;74.60
17296;DHT22;8766;51.480;6.872;2023-02-01T11:40:33;8.60;74.60
17296;DHT22;8766;51.480;6.872;2023-02-01T11:43:08;8.60;74.50
17296;DHT22;8766;51.480;6.872;2023-02-01T11:45:35;8.60;74.50
17296;DHT22;8766;51.480;6.872;2023-02-01T11:48:08;8.50;74.50
17296;DHT22;8766;51.480;6.872;2023-02-01T11:50:41;8.50;74.80
17296;DHT22;8766;51.480;6.872;2023-02-01T11:53:28;8.40;74.80
17296;DHT22;8766;51.480;6.872;2023-02-01T11:56:08;8.40;75.00
17296;DHT22;8766;51.480;6.872;2023-02-01T11:59:02;8.40;75.10
17296;DHT22;8766;51.480;6.872;2023-02-01T12:01:40;8.30;75.10
17296;DHT22;8766;51.480;6.872;2023-02-01T12:07:13;8.30;75.10
17296;DHT22;8766;51.480;6.872;2023-02-01T12:09:56;8.30;75.10
17296;DHT22;8766;51.480;6.872;2023-02-01T12:12:33;8.30;75.20
17296;DHT22;8766;51.480;6.872;2023-02-01T12:15:18;8.30;75.20
17296;DHT22;8766;51.480;6.872;2023-02-01T12:21:11;8.20;75.40
17296;DHT22;8766;51.480;6.872;2023-02-01T12:24:11;8.20;75.40
17296;DHT22;8766;51.480;6.872;2023-02-01T12:26:53;8.20;75.30
17296;DHT22;8766;51.480;6.872;2023-02-01T12:29:37;8.20;75.30
17296;DHT22;8766;51.480;6.872;2023-02-01T12:32:21;8.30;75.30
17296;DHT22;8766;51.480;6.872;2023-02-01T12:35:06;8.30;75.20
17296;DHT22;8766;51.480;6.872;2023-02-01T12:37:58;8.30;75.20
17296;DHT22;8766;51.480;6.872;2023-02-01T12:40:39;8.30;75.20
17296;DHT22;8766;51.480;6.872;2023-02-01T12:43:12;8.30;75.20
17296;DHT22;8766;51.480;6.872;2023-02-01T12:45:45;8.30;75.10
17296;DHT22;8766;51.480;6.872;2023-02-01T12:48:26;8.30;75.10
17296;DHT22;8766;51.480;6.872;2023-02-01T12:50:56;8.40;75.20
17296;DHT22;8766;51.480;6.872;2023-02-01T12:53:32;8.40;75.10
17296;DHT22;8766;51.480;6.872;2023-02-01T12:56:03;8.40;75.10
17296;DHT22;8766;51.480;6.872;2023-02-01T12:58:41;8.40;75.10
17296;DHT22;8766;51.480;6.872;2023-02-01T13:01:12;8.40;75.10
17296;DHT22;8766;51.480;6.872;2023-02-01T13:03:44;8.40;75.00
17296;DHT22;8766;51.480;6.872;2023-02-01T13:06:19;8.40;75.00
17296;DHT22;8766;51.480;6.872;2023-02-01T13:08:51;8.40;75.00
17296;DHT22;8766;51.480;6.872;2023-02-01T13:11:26;8.40;75.00
17296;DHT22;8766;51.480;6.872;2023-02-01T13:14:01;8.40;75.00
17296;DHT22;8766;51.480;6.872;2023-02-01T13:16:30;8.40;75.00
17296;DHT22;8766;51.480;6.872;2023-02-01T13:19:05;8.40;75.00
17296;DHT22;8766;51.480;6.872;2023-02-01T13:21:38;8.40;75.00
17296;DHT22;8766;51.480;6.872;2023-02-01T13:24:10;8.40;75.00
17296;DHT22;8766;51.480;6.872;2023-02-01T13:26:43;8.50;75.10
17296;DHT22;8766;51.480;6.872;2023-02-01T13:29:11;8.50;75.00
17296;DHT22;8766;51.480;6.872;2023-02-01T13:32:01;8.50;74.90
17296;DHT22;8766;51.480;6.872;2023-02-01T13:34:49;8.50;74.80
17296;DHT22;8766;51.480;6.872;2023-02-01T13:37:31;8.60;74.90
17296;DHT22;8766;51.480;6.872;2023-02-01T13:40:17;8.60;74.80
17296;DHT22;8766;51.480;6.872;2023-02-01T13:42:52;8.60;74.80
17296;DHT22;8766;51.480;6.872;2023-02-01T13:45:22;8.60;74.70
17296;DHT22;8766;51.480;6.872;2023-02-01T13:47:52;8.70;74.70
17296;DHT22;8766;51.480;6.872;2023-02-01T13:50:26;8.70;74.60
17296;DHT22;8766;51.480;6.872;2023-02-01T13:52:55;8.70;74.60
17296;DHT22;8766;51.480;6.872;2023-02-01T13:55:31;8.70;74.60
17296;DHT22;8766;51.480;6.872;2023-02-01T13:58:29;8.70;74.60
17296;DHT22;8766;51.480;6.872;2023-02-01T14:01:34;8.70;74.70
17296;DHT22;8766;51.480;6.872;2023-02-01T14:04:05;8.70;74.70
17296;DHT22;8766;51.480;6.872;2023-02-01T14:06:42;8.70;74.60
17296;DHT22;8766;51.480;6.872;2023-02-01T14:09:19;8.70;74.70
17296;DHT22;8766;51.480;6.872;2023-02-01T14:11:49;8.70;74.70
17296;DHT22;8766;51.480;6.872;2023-02-01T14:14:49;8.70;74.60
17296;DHT22;8766;51.480;6.872;2023-02-01T14:17:34;8.70;74.60
17296;DHT22;8766;51.480;6.872;2023-02-01T14:23:19;8.70;74.70
17296;DHT22;8766;51.480;6.872;2023-02-01T14:25:48;8.70;74.70
17296;DHT22;8766;51.480;6.872;2023-02-01T14:28:28;8.70;74.70
17296;DHT22;8766;51.480;6.872;2023-02-01T14:30:58;8.70;74.70
17296;DHT22;8766;51.480;6.872;2023-02-01T14:33:29;8.70;74.70
17296;DHT22;8766;51.480;6.872;2023-02-01T14:36:08;8.70;74.70
17296;DHT22;8766;51.480;6.872;2023-02-01T14:38:48;8.70;74.70
17296;DHT22;8766;51.480;6.872;2023-02-01T14:41:32;8.70;74.60
17296;DHT22;8766;51.480;6.872;2023-02-01T14:44:28;8.80;74.70
17296;DHT22;8766;51.480;6.872;2023-02-01T14:47:11;8.80;74.60
17296;DHT22;8766;51.480;6.872;2023-02-01T14:49:57;8.80;74.60
17296;DHT22;8766;51.480;6.872;2023-02-01T14:52:36;8.80;74.50
17296;DHT22;8766;51.480;6.872;2023-02-01T14:55:13;8.80;74.60
17296;DHT22;8766;51.480;6.872;2023-02-01T14:57:47;8.70;74.60
17296;DHT22;8766;51.480;6.872;2023-02-01T15:00:21;8.80;74.60
17296;DHT22;8766;51.480;6.872;2023-02-01T15:02:54;8.70;74.60
17296;DHT22;8766;51.480;6.872;2023-02-01T15:05:30;8.80;74.60
17296;DHT22;8766;51.480;6.872;2023-02-01T15:08:03;8.80;74.70
17296;DHT22;8766;51.480;6.872;2023-02-01T15:10:39;8.80;74.60
17296;DHT22;8766;51.480;6.872;2023-02-01T15:13:26;8.80;74.60
17296;DHT22;8766;51.480;6.872;2023-02-01T15:16:05;8.80;74.60
17296;DHT22;8766;51.480;6.872;2023-02-01T15:18:33;8.80;74.60
17296;DHT22;8766;51.480;6.872;2023-02-01T15:21:03;8.80;74.60
17296;DHT22;8766;51.480;6.872;2023-02-01T15:23:32;8.80;74.60
17296;DHT22;8766;51.480;6.872;2023-02-01T15:26:05;8.80;74.60
17296;DHT22;8766;51.480;6.872;2023-02-01T15:28:33;8.80;74.60
17296;DHT22;8766;51.480;6.872;2023-02-01T15:31:07;8.80;74.60
17296;DHT22;8766;51.480;6.872;2023-02-01T15:33:35;8.80;74.60
17296;DHT22;8766;51.480;6.872;2023-02-01T15:36:09;8.80;74.50
17296;DHT22;8766;51.480;6.872;2023-02-01T15:38:41;8.80;74.60
17296;DHT22;8766;51.480;6.872;2023-02-01T15:41:11;8.80;74.50
17296;DHT22;8766;51.480;6.872;2023-02-01T15:43:42;8.80;74.60
17296;DHT22;8766;51.480;6.872;2023-02-01T15:46:12;8.80;74.70
17296;DHT22;8766;51.480;6.872;2023-02-01T15:48:44;8.80;74.70
17296;DHT22;8766;51.480;6.872;2023-02-01T15:51:20;8.80;74.70
17296;DHT22;8766;51.480;6.872;2023-02-01T15:53:53;8.80;74.70
17296;DHT22;8766;51.480;6.872;2023-02-01T15:56:23;8.80;74.70
17296;DHT22;8766;51.480;6.872;2023-02-01T15:58:54;8.80;74.70
17296;DHT22;8766;51.480;6.872;2023-02-01T16:01:23;8.80;74.70
17296;DHT22;8766;51.480;6.872;2023-02-01T16:04:15;8.80;74.80
17296;DHT22;8766;51.480;6.872;2023-02-01T16:06:49;8.80;74.80
17296;DHT22;8766;51.480;6.872;2023-02-01T16:09:19;8.80;74.80
17296;DHT22;8766;51.480;6.872;2023-02-01T16:11:53;8.80;74.70
17296;DHT22;8766;51.480;6.872;2023-02-01T16:14:21;8.80;74.70
17296;DHT22;8766;51.480;6.872;2023-02-01T16:16:48;8.80;74.70
17296;DHT22;8766;51.480;6.872;2023-02-01T16:19:16;8.80;74.70
17296;DHT22;8766;51.480;6.872;2023-02-01T16:21:44;8.80;74.70
17296;DHT22;8766;51.480;6.872;2023-02-01T16:24:11;8.80;74.60
17296;DHT22;8766;51.480;6.872;2023-02-01T16:26:38;8.80;74.70
17296;DHT22;8766;51.480;6.872;2023-02-01T16:29:05;8.70;74.60
17296;DHT22;8766;51.480;6.872;2023-02-01T16:31:34;8.70;74.80
17296;DHT22;8766;51.480;6.872;2023-02-01T16:34:02;8.60;74.90
17296;DHT22;8766;51.480;6.872;2023-02-01T16:36:32;8.60;75.00
17296;DHT22;8766;51.480;6.872;2023-02-01T16:39:01;8.60;75.00
17296;DHT22;8766;51.480;6.872;2023-02-01T16:41:28;8.60;75.10
17296;DHT22;8766;51.480;6.872;2023-02-01T16:43:55;8.60;75.20
17296;DHT22;8766;51.480;6.872;2023-02-01T16:46:25;8.60;75.10
17296;DHT22;8766;51.480;6.872;2023-02-01T16:48:57;8.60;75.10